Time;durP1;ratioP1;P1;durP2;ratioP2;P2;SDS_P1;SDS_P2;PMS_P1;PMS_P2;Temp;Humidity;BMP_temperature;BMP_pressure;BME280_temperature;BME280_humidity;BME280_pressure;Samples;Min_cycle;Max_cycle;Signal;HPM_P1;HPM_P2
2022/09/19 00:01:49;;;;;;;0.13;0.13;;;;;;;;;;5095016;28;20126;-85
2022/09/19 00:04:19;;;;;;;0.20;0.20;;;;;;;;;;5095422;28;20732;-84
2022/09/19 00:06:46;;;;;;;0.30;0.30;;;;;;;;;;5094665;28;20039;-84
2022/09/19 00:09:14;;;;;;;0.10;0.10;;;;;;;;;;5094796;28;20039;-85
2022/09/19 00:11:41;;;;;;;0.20;0.20;;;;;;;;;;5095300;28;20035;-85
2022/09/19 00:14:09;;;;;;;0.17;0.17;;;;;;;;;;5112323;28;20501;-85
2022/09/19 00:16:38;;;;;;;0.10;0.10;;;;;;;;;;5094858;28;20078;-85
2022/09/19 00:19:05;;;;;;;0.15;0.15;;;;;;;;;;5094568;28;20480;-85
2022/09/19 00:21:39;;;;;;;0.20;0.20;;;;;;;;;;5093913;28;20134;-85
2022/09/19 00:26:50;;;;;;;0.17;0.17;;;;;;;;;;5111558;28;20491;-85
2022/09/19 00:29:16;;;;;;;0.20;0.20;;;;;;;;;;5094391;28;20040;-85
2022/09/19 00:31:43;;;;;;;0.22;0.22;;;;;;;;;;5111413;28;20067;-85
2022/09/19 00:34:09;;;;;;;0.20;0.20;;;;;;;;;;5094657;28;20039;-85
2022/09/19 00:36:36;;;;;;;0.10;0.10;;;;;;;;;;5094464;28;20040;-85
2022/09/19 00:39:03;;;;;;;0.10;0.10;;;;;;;;;;5094439;28;20498;-84
2022/09/19 00:41:29;;;;;;;0.20;0.20;;;;;;;;;;5094470;28;20100;-85
2022/09/19 00:43:57;;;;;;;0.20;0.20;;;;;;;;;;5094271;28;20042;-84
2022/09/19 00:46:25;;;;;;;0.10;0.10;;;;;;;;;;5111624;28;20044;-85
2022/09/19 00:49:00;;;;;;;0.22;0.22;;;;;;;;;;5094046;28;20134;-86
2022/09/19 00:51:28;;;;;;;;;;;;;;;;;;5094689;28;20104;-84
2022/09/19 00:53:54;;;;;;;0.10;0.10;;;;;;;;;;5094222;28;19916;-85
2022/09/19 00:56:22;;;;;;;0.30;0.30;;;;;;;;;;5094321;28;20071;-85
2022/09/19 00:58:49;;;;;;;0.25;0.25;;;;;;;;;;5093900;28;20039;-85
2022/09/19 01:01:15;;;;;;;0.13;0.13;;;;;;;;;;5094529;28;20039;-85
2022/09/19 01:03:42;;;;;;;0.10;0.10;;;;;;;;;;5094145;28;20400;-85
2022/09/19 01:06:35;;;;;;;0.20;0.20;;;;;;;;;;5094013;28;20046;-86
2022/09/19 01:09:16;;;;;;;0.20;0.20;;;;;;;;;;5093888;28;20079;-85
2022/09/19 01:11:57;;;;;;;0.20;0.20;;;;;;;;;;5111062;28;20093;-84
2022/09/19 01:14:34;;;;;;;0.30;0.30;;;;;;;;;;5094454;28;20526;-85
2022/09/19 01:17:05;;;;;;;0.30;0.30;;;;;;;;;;5094297;28;20048;-85
2022/09/19 01:19:35;;;;;;;0.10;0.10;;;;;;;;;;5093805;28;20504;-85
2022/09/19 01:22:11;;;;;;;0.30;0.30;;;;;;;;;;5093906;28;20051;-85
2022/09/19 01:24:49;;;;;;;0.20;0.20;;;;;;;;;;5093995;28;20408;-85
2022/09/19 01:27:18;;;;;;;0.28;0.28;;;;;;;;;;5094002;28;20416;-85
2022/09/19 01:30:05;;;;;;;0.20;0.20;;;;;;;;;;5110709;28;20164;-85
2022/09/19 01:32:44;;;;;;;0.20;0.20;;;;;;;;;;5094151;28;20088;-85
2022/09/19 01:35:11;;;;;;;0.10;0.10;;;;;;;;;;5098077;28;20050;-85
2022/09/19 01:37:41;;;;;;;0.40;0.40;;;;;;;;;;5097753;28;20400;-85
2022/09/19 01:40:09;;;;;;;0.10;0.10;;;;;;;;;;5098123;28;20043;-84
2022/09/19 01:42:35;;;;;;;0.20;0.20;;;;;;;;;;5097907;28;20067;-85
2022/09/19 01:45:01;;;;;;;0.20;0.20;;;;;;;;;;5097665;28;20039;-85
2022/09/19 01:47:30;;;;;;;0.20;0.20;;;;;;;;;;5097923;28;20556;-85
2022/09/19 01:50:00;;;;;;;0.30;0.30;;;;;;;;;;5097317;28;20040;-85
2022/09/19 01:52:49;;;;;;;0.20;0.20;;;;;;;;;;5097427;28;20036;-85
2022/09/19 01:55:39;;;;;;;0.20;0.20;;;;;;;;;;5085436;28;20043;-85
2022/09/19 01:58:14;;;;;;;0.10;0.10;;;;;;;;;;5097798;28;20050;-86
2022/09/19 02:00:49;;;;;;;0.20;0.20;;;;;;;;;;5097526;28;20040;-86
2022/09/19 02:03:22;;;;;;;0.10;0.10;;;;;;;;;;5097489;28;20044;-85
2022/09/19 02:06:07;;;;;;;0.20;0.20;;;;;;;;;;5097421;28;20107;-85
2022/09/19 02:08:37;;;;;;;0.20;0.20;;;;;;;;;;5097180;28;20039;-85
2022/09/19 02:11:15;;;;;;;0.10;0.10;;;;;;;;;;5097037;28;20032;-85
2022/09/19 02:13:44;;;;;;;0.10;0.10;;;;;;;;;;5114270;28;20043;-86
2022/09/19 02:16:18;;;;;;;0.20;0.20;;;;;;;;;;5097298;28;20377;-85
2022/09/19 02:18:49;;;;;;;0.20;0.20;;;;;;;;;;5114282;28;20086;-85
2022/09/19 02:21:19;;;;;;;0.20;0.20;;;;;;;;;;5114290;28;20058;-86
2022/09/19 02:23:49;;;;;;;0.20;0.20;;;;;;;;;;5097288;28;20081;-85
2022/09/19 02:26:19;;;;;;;0.20;0.20;;;;;;;;;;5096886;28;20484;-84
2022/09/19 02:28:48;;;;;;;0.15;0.15;;;;;;;;;;5096796;28;20047;-85
2022/09/19 02:31:15;;;;;;;0.10;0.10;;;;;;;;;;5097103;28;20036;-85
2022/09/19 02:33:44;;;;;;;0.10;0.10;;;;;;;;;;5096957;28;20040;-85
2022/09/19 02:36:32;;;;;;;0.10;0.10;;;;;;;;;;5097002;28;20040;-84
2022/09/19 02:39:01;;;;;;;0.20;0.20;;;;;;;;;;5096560;28;20403;-85
2022/09/19 02:41:36;;;;;;;0.20;0.20;;;;;;;;;;5113581;28;20400;-85
2022/09/19 02:44:05;;;;;;;0.10;0.10;;;;;;;;;;5096415;28;20051;-85
2022/09/19 02:46:47;;;;;;;0.20;0.20;;;;;;;;;;5096143;28;20139;-85
2022/09/19 02:49:19;;;;;;;0.20;0.20;;;;;;;;;;5096261;28;20039;-85
2022/09/19 02:51:54;;;;;;;0.20;0.20;;;;;;;;;;5113323;28;20059;-85
2022/09/19 02:54:22;;;;;;;0.00;0.00;;;;;;;;;;5096772;28;20096;-85
2022/09/19 02:56:50;;;;;;;0.10;0.10;;;;;;;;;;5113259;28;20404;-84
2022/09/19 02:59:22;;;;;;;0.20;0.20;;;;;;;;;;5096058;28;20036;-84
2022/09/19 03:01:55;;;;;;;0.10;0.10;;;;;;;;;;5096104;28;20047;-85
2022/09/19 03:04:29;;;;;;;0.10;0.10;;;;;;;;;;5096446;28;20047;-85
2022/09/19 03:07:07;;;;;;;0.10;0.10;;;;;;;;;;5096262;28;20035;-85
2022/09/19 03:09:33;;;;;;;0.10;0.10;;;;;;;;;;5096069;28;20480;-85
2022/09/19 03:12:03;;;;;;;0.20;0.20;;;;;;;;;;5095974;28;20104;-85
2022/09/19 03:14:30;;;;;;;0.20;0.20;;;;;;;;;;5113200;28;20071;-85
2022/09/19 03:16:58;;;;;;;0.20;0.20;;;;;;;;;;5096052;28;20040;-85
2022/09/19 03:19:24;;;;;;;0.20;0.20;;;;;;;;;;5095713;28;20163;-85
2022/09/19 03:21:54;;;;;;;0.10;0.10;;;;;;;;;;5112917;28;20043;-85
2022/09/19 03:24:21;;;;;;;0.38;0.38;;;;;;;;;;5095715;28;20043;-85
2022/09/19 03:26:47;;;;;;;0.10;0.10;;;;;;;;;;5112675;28;20043;-84
2022/09/19 03:29:14;;;;;;;0.30;0.30;;;;;;;;;;5095376;28;20071;-84
2022/09/19 03:31:40;;;;;;;0.25;0.25;;;;;;;;;;5112910;28;20039;-84
2022/09/19 03:34:06;;;;;;;0.10;0.10;;;;;;;;;;5095536;28;20031;-85
2022/09/19 03:36:35;;;;;;;0.20;0.20;;;;;;;;;;5112989;28;20130;-85
2022/09/19 03:39:02;;;;;;;0.10;0.10;;;;;;;;;;5095459;28;20085;-84
2022/09/19 03:41:30;;;;;;;0.20;0.20;;;;;;;;;;5112708;28;20059;-84
2022/09/19 03:43:59;;;;;;;0.10;0.10;;;;;;;;;;5095540;28;20389;-85
2022/09/19 03:46:26;;;;;;;0.22;0.22;;;;;;;;;;5095334;28;20043;-84
2022/09/19 03:48:52;;;;;;;0.10;0.10;;;;;;;;;;5095056;28;20176;-84
2022/09/19 03:51:19;;;;;;;0.20;0.20;;;;;;;;;;5095452;28;20032;-84
2022/09/19 03:53:45;;;;;;;0.20;0.20;;;;;;;;;;5112100;28;20443;-85
2022/09/19 03:56:12;;;;;;;0.20;0.20;;;;;;;;;;5095161;28;20496;-84
2022/09/19 03:58:38;;;;;;;0.17;0.17;;;;;;;;;;5112143;28;20052;-84
2022/09/19 04:01:06;;;;;;;0.20;0.20;;;;;;;;;;5094938;28;20122;-84
2022/09/19 04:03:33;;;;;;;0.20;0.20;;;;;;;;;;5089061;28;20040;-84
2022/09/19 04:06:00;;;;;;;0.20;0.20;;;;;;;;;;5064202;28;20075;-84
2022/09/19 04:08:26;;;;;;;0.20;0.20;;;;;;;;;;5081703;28;20059;-84
2022/09/19 04:10:52;;;;;;;0.13;0.13;;;;;;;;;;5080933;28;20430;-84
2022/09/19 04:13:21;;;;;;;0.30;0.30;;;;;;;;;;5062798;28;20503;-85
2022/09/19 04:15:48;;;;;;;0.20;0.20;;;;;;;;;;5063936;28;20051;-84
2022/09/19 04:18:14;;;;;;;0.20;0.20;;;;;;;;;;5065147;28;20028;-84
2022/09/19 04:20:40;;;;;;;0.10;0.10;;;;;;;;;;5079079;28;20206;-84
2022/09/19 04:23:07;;;;;;;0.20;0.20;;;;;;;;;;5062128;28;20036;-84
2022/09/19 04:25:35;;;;;;;0.10;0.10;;;;;;;;;;5065628;28;20067;-84
2022/09/19 04:28:05;;;;;;;0.30;0.30;;;;;;;;;;5062707;28;20040;-84
2022/09/19 04:30:32;;;;;;;0.10;0.10;;;;;;;;;;5065272;28;20035;-84
2022/09/19 04:33:00;;;;;;;0.20;0.20;;;;;;;;;;5062840;28;20137;-84
2022/09/19 04:35:26;;;;;;;0.10;0.10;;;;;;;;;;5062318;28;20427;-84
2022/09/19 04:37:52;;;;;;;0.30;0.30;;;;;;;;;;5064315;28;20043;-84
2022/09/19 04:40:21;;;;;;;0.20;0.20;;;;;;;;;;5064282;28;20487;-84
2022/09/19 04:42:47;;;;;;;0.20;0.20;;;;;;;;;;5063778;28;20047;-84
2022/09/19 04:45:20;;;;;;;0.10;0.10;;;;;;;;;;5064596;28;20024;-84
2022/09/19 04:47:47;;;;;;;0.20;0.20;;;;;;;;;;5063228;28;20048;-84
2022/09/19 04:50:13;;;;;;;0.20;0.20;;;;;;;;;;5065223;28;20401;-84
2022/09/19 04:52:39;;;;;;;0.20;0.20;;;;;;;;;;5065499;28;20093;-84
2022/09/19 04:55:06;;;;;;;0.20;0.20;;;;;;;;;;5062074;28;20032;-85
2022/09/19 04:57:32;;;;;;;0.20;0.20;;;;;;;;;;5065373;28;20032;-84
2022/09/19 04:59:57;;;;;;;0.20;0.20;;;;;;;;;;5058453;28;20581;-84
2022/09/19 05:02:24;;;;;;;0.13;0.13;;;;;;;;;;5067315;28;20032;-85
2022/09/19 05:04:51;;;;;;;0.20;0.20;;;;;;;;;;5063529;28;20060;-83
2022/09/19 05:07:19;;;;;;;0.20;0.20;;;;;;;;;;5063721;28;20520;-85
2022/09/19 05:09:45;;;;;;;0.10;0.10;;;;;;;;;;5067996;28;20035;-84
2022/09/19 05:12:11;;;;;;;0.20;0.20;;;;;;;;;;5066543;28;20028;-84
2022/09/19 05:14:37;;;;;;;0.20;0.20;;;;;;;;;;5069289;28;20060;-84
2022/09/19 05:17:03;;;;;;;0.20;0.20;;;;;;;;;;5066058;28;20090;-85
2022/09/19 05:19:32;;;;;;;0.20;0.20;;;;;;;;;;5069046;28;20512;-84
2022/09/19 05:21:58;;;;;;;0.20;0.20;;;;;;;;;;5066568;28;20499;-84
2022/09/19 05:24:24;;;;;;;0.20;0.20;;;;;;;;;;5085037;28;20040;-84
2022/09/19 05:26:50;;;;;;;0.20;0.20;;;;;;;;;;5067146;28;20043;-84
2022/09/19 05:29:17;;;;;;;0.28;0.28;;;;;;;;;;5066765;28;20045;-84
2022/09/19 05:31:45;;;;;;;0.20;0.20;;;;;;;;;;5068411;28;20122;-85
2022/09/19 05:34:13;;;;;;;0.20;0.20;;;;;;;;;;5066337;28;20054;-84
2022/09/19 05:36:39;;;;;;;0.30;0.30;;;;;;;;;;5068422;28;20028;-84
2022/09/19 05:39:06;;;;;;;0.20;0.20;;;;;;;;;;5065475;28;20543;-85
2022/09/19 05:41:33;;;;;;;0.30;0.30;;;;;;;;;;5069220;28;20047;-84
2022/09/19 05:43:59;;;;;;;0.40;0.40;;;;;;;;;;5065262;28;20036;-85
2022/09/19 05:46:25;;;;;;;0.20;0.20;;;;;;;;;;5068157;28;20051;-84
2022/09/19 05:48:51;;;;;;;0.20;0.20;;;;;;;;;;5066042;28;20142;-84
2022/09/19 05:51:17;;;;;;;0.40;0.40;;;;;;;;;;5067260;28;20131;-85
2022/09/19 05:53:52;;;;;;;0.30;0.30;;;;;;;;;;5080335;28;20043;-84
2022/09/19 05:56:18;;;;;;;0.20;0.20;;;;;;;;;;5084088;28;20036;-84
2022/09/19 05:58:44;;;;;;;0.30;0.30;;;;;;;;;;5066927;28;20075;-84
2022/09/19 06:01:11;;;;;;;0.30;0.30;;;;;;;;;;5066099;28;20091;-84
2022/09/19 06:03:38;;;;;;;0.10;0.10;;;;;;;;;;5084964;28;20036;-84
2022/09/19 06:06:11;;;;;;;0.20;0.20;;;;;;;;;;5065104;28;20127;-84
2022/09/19 06:08:38;;;;;;;0.20;0.20;;;;;;;;;;5067998;28;20485;-84
2022/09/19 06:11:04;;;;;;;0.20;0.20;;;;;;;;;;5064917;28;20044;-85
2022/09/19 06:14:13;;;;;;;0.30;0.30;;;;;;;;;;5068326;28;20074;-84
2022/09/19 06:16:17;;;;;;;0.20;0.20;;;;;;;;;;5074822;28;20455;-84
2022/09/19 06:18:44;;;;;;;0.20;0.20;;;;;;;;;;5066727;28;20058;-84
2022/09/19 06:21:10;;;;;;;0.30;0.30;;;;;;;;;;5064547;28;20040;-84
2022/09/19 06:23:36;;;;;;;0.20;0.20;;;;;;;;;;5065124;28;20040;-84
2022/09/19 06:26:02;;;;;;;0.30;0.30;;;;;;;;;;5068176;28;20044;-84
2022/09/19 06:28:28;;;;;;;0.28;0.28;;;;;;;;;;5064621;28;20039;-85
2022/09/19 06:30:54;;;;;;;0.17;0.17;;;;;;;;;;5084115;28;20028;-84
2022/09/19 06:33:20;;;;;;;0.20;0.20;;;;;;;;;;5063926;28;20039;-85
2022/09/19 06:35:47;;;;;;;0.30;0.30;;;;;;;;;;5082554;28;20068;-84
2022/09/19 06:38:13;;;;;;;0.20;0.20;;;;;;;;;;5065932;28;20036;-84
2022/09/19 06:40:39;;;;;;;0.20;0.20;;;;;;;;;;5066947;28;20048;-84
2022/09/19 06:43:07;;;;;;;0.20;0.20;;;;;;;;;;5064846;28;20032;-84
2022/09/19 06:45:36;;;;;;;0.20;0.20;;;;;;;;;;5067431;28;20047;-84
2022/09/19 06:48:02;;;;;;;0.32;0.32;;;;;;;;;;5064233;28;20036;-84
2022/09/19 06:50:28;;;;;;;0.20;0.20;;;;;;;;;;5067404;28;20043;-86
2022/09/19 06:52:55;;;;;;;0.10;0.10;;;;;;;;;;5064274;28;20512;-85
2022/09/19 06:55:25;;;;;;;0.20;0.20;;;;;;;;;;5083611;28;20036;-85
2022/09/19 06:58:01;;;;;;;0.20;0.20;;;;;;;;;;5067578;28;20054;-86
2022/09/19 07:00:28;;;;;;;0.20;0.20;;;;;;;;;;5059334;28;20456;-85
2022/09/19 07:03:24;;;;;;;0.20;0.20;;;;;;;;;;5063811;28;20039;-86
2022/09/19 07:05:51;;;;;;;0.17;0.17;;;;;;;;;;5055841;28;20131;-86
2022/09/19 07:08:17;;;;;;;0.10;0.10;;;;;;;;;;5059500;28;20086;-85
2022/09/19 07:10:43;;;;;;;0.20;0.20;;;;;;;;;;5063825;28;20042;-88
2022/09/19 07:13:13;;;;;;;0.20;0.20;;;;;;;;;;5082002;28;20044;-86
2022/09/19 07:15:39;;;;;;;0.20;0.20;;;;;;;;;;5082778;28;20075;-86
2022/09/19 07:18:08;;;;;;;0.20;0.20;;;;;;;;;;5063655;28;20406;-87
2022/09/19 07:20:34;;;;;;;0.17;0.17;;;;;;;;;;5063997;28;20090;-85
2022/09/19 07:23:01;;;;;;;0.10;0.10;;;;;;;;;;5067004;28;20594;-86
2022/09/19 07:25:28;;;;;;;0.28;0.28;;;;;;;;;;5063286;28;20029;-86
2022/09/19 07:27:55;;;;;;;0.10;0.10;;;;;;;;;;5063364;28;20064;-85
2022/09/19 07:30:21;;;;;;;0.10;0.10;;;;;;;;;;5065597;28;20121;-86
2022/09/19 07:32:47;;;;;;;0.13;0.13;;;;;;;;;;5064230;28;20075;-85
2022/09/19 07:35:13;;;;;;;0.10;0.10;;;;;;;;;;5080210;28;20064;-85
2022/09/19 07:37:39;;;;;;;0.20;0.20;;;;;;;;;;5064772;28;20036;-87
2022/09/19 07:40:06;;;;;;;0.20;0.20;;;;;;;;;;5065284;28;20090;-86
2022/09/19 07:42:32;;;;;;;0.10;0.10;;;;;;;;;;5063640;28;20098;-87
2022/09/19 07:44:58;;;;;;;0.17;0.17;;;;;;;;;;5062545;28;20497;-86
2022/09/19 07:47:26;;;;;;;0.10;0.10;;;;;;;;;;5066858;28;20032;-86
2022/09/19 07:49:55;;;;;;;0.00;0.00;;;;;;;;;;5083838;28;20040;-87
2022/09/19 07:52:26;;;;;;;0.10;0.10;;;;;;;;;;5066466;28;20500;-86
2022/09/19 07:54:52;;;;;;;0.10;0.10;;;;;;;;;;5080244;28;20072;-87
2022/09/19 07:57:18;;;;;;;0.15;0.15;;;;;;;;;;5064900;28;20040;-86
2022/09/19 07:59:45;;;;;;;0.20;0.20;;;;;;;;;;5064232;28;20040;-87
2022/09/19 08:02:11;;;;;;;0.20;0.20;;;;;;;;;;5060370;28;20504;-86
2022/09/19 08:04:37;;;;;;;0.10;0.10;;;;;;;;;;5060282;28;20389;-87
2022/09/19 08:07:04;;;;;;;0.10;0.10;;;;;;;;;;5063757;28;20039;-86
2022/09/19 08:09:30;;;;;;;0.10;0.10;;;;;;;;;;5061052;28;20485;-87
2022/09/19 08:11:57;;;;;;;0.20;0.20;;;;;;;;;;5060695;28;20040;-87
2022/09/19 08:14:23;;;;;;;0.10;0.10;;;;;;;;;;5082841;28;20119;-88
2022/09/19 08:16:50;;;;;;;0.20;0.20;;;;;;;;;;5062513;28;20056;-87
2022/09/19 08:19:16;;;;;;;0.10;0.10;;;;;;;;;;5064575;28;20405;-87
2022/09/19 08:21:42;;;;;;;0.10;0.10;;;;;;;;;;5063085;28;20044;-87
2022/09/19 08:24:08;;;;;;;0.10;0.10;;;;;;;;;;5062212;28;20032;-87
2022/09/19 08:26:35;;;;;;;0.10;0.10;;;;;;;;;;5064576;28;20031;-86
2022/09/19 08:29:01;;;;;;;0.10;0.10;;;;;;;;;;5060804;28;20055;-87
2022/09/19 08:31:27;;;;;;;0.10;0.10;;;;;;;;;;5063654;28;20031;-87
2022/09/19 08:33:53;;;;;;;0.10;0.10;;;;;;;;;;5061655;28;20029;-87
2022/09/19 08:36:19;;;;;;;0.15;0.15;;;;;;;;;;5066376;28;20043;-87
2022/09/19 08:38:45;;;;;;;0.10;0.10;;;;;;;;;;5064891;28;20055;-87
2022/09/19 08:41:24;;;;;;;0.20;0.20;;;;;;;;;;5063199;28;20040;-88
2022/09/19 08:44:09;;;;;;;0.20;0.20;;;;;;;;;;5073875;28;20063;-87
2022/09/19 08:46:42;;;;;;;0.10;0.10;;;;;;;;;;5059564;28;20086;-86
2022/09/19 08:49:14;;;;;;;0.10;0.10;;;;;;;;;;5065287;28;20047;-87
2022/09/19 08:51:50;;;;;;;0.10;0.10;;;;;;;;;;5079993;28;20032;-87
2022/09/19 08:54:16;;;;;;;0.20;0.20;;;;;;;;;;5065219;28;20035;-88
2022/09/19 08:56:43;;;;;;;0.13;0.13;;;;;;;;;;5063155;28;20042;-88
2022/09/19 08:59:23;;;;;;;0.10;0.10;;;;;;;;;;5064197;28;20036;-87
2022/09/19 09:01:52;;;;;;;0.10;0.10;;;;;;;;;;5061557;28;20047;-87
2022/09/19 09:04:25;;;;;;;0.10;0.10;;;;;;;;;;5061856;28;20390;-87
2022/09/19 09:07:17;;;;;;;0.15;0.15;;;;;;;;;;5058741;28;20105;-86
2022/09/19 09:09:49;;;;;;;0.20;0.20;;;;;;;;;;5081180;28;20707;-87
2022/09/19 09:12:40;;;;;;;0.10;0.10;;;;;;;;;;5061432;28;20040;-87
2022/09/19 09:15:20;;;;;;;0.10;0.10;;;;;;;;;;5070813;28;20047;-87
2022/09/19 09:17:59;;;;;;;0.10;0.10;;;;;;;;;;5065100;28;20036;-87
2022/09/19 09:20:28;;;;;;;0.10;0.10;;;;;;;;;;5057242;28;20029;-87
2022/09/19 09:23:15;;;;;;;0.10;0.10;;;;;;;;;;5061527;28;20041;-87
2022/09/19 09:25:44;;;;;;;0.15;0.15;;;;;;;;;;5062399;28;20032;-87
2022/09/19 09:28:28;;;;;;;0.20;0.20;;;;;;;;;;5067740;28;20041;-87
2022/09/19 09:31:02;;;;;;;0.10;0.10;;;;;;;;;;5057861;28;20040;-87
2022/09/19 09:33:30;;;;;;;0.10;0.10;;;;;;;;;;5062470;28;20064;-87
2022/09/19 09:36:02;;;;;;;0.10;0.10;;;;;;;;;;5064383;28;20040;-87
2022/09/19 09:38:29;;;;;;;0.20;0.20;;;;;;;;;;5061805;28;20556;-87
2022/09/19 09:43:52;;;;;;;0.10;0.10;;;;;;;;;;5078148;28;20102;-87
2022/09/19 09:46:22;;;;;;;0.10;0.10;;;;;;;;;;5061572;28;20119;-88
2022/09/19 09:48:50;;;;;;;0.10;0.10;;;;;;;;;;5065248;28;20042;-88
2022/09/19 09:51:18;;;;;;;0.10;0.10;;;;;;;;;;5063908;28;20039;-87
2022/09/19 09:53:56;;;;;;;0.10;0.10;;;;;;;;;;5068827;28;20047;-87
2022/09/19 09:56:35;;;;;;;0.10;0.10;;;;;;;;;;5066874;28;20687;-88
2022/09/19 10:05:28;;;;;;;0.20;0.20;;;;;;;;;;5061589;28;20072;-88
2022/09/19 10:07:58;;;;;;;0.30;0.30;;;;;;;;;;5068043;28;20041;-88
2022/09/19 10:10:25;;;;;;;0.10;0.10;;;;;;;;;;5067709;28;20123;-88
2022/09/19 10:13:09;;;;;;;0.10;0.10;;;;;;;;;;5082486;28;20041;-88
2022/09/19 10:15:39;;;;;;;0.10;0.10;;;;;;;;;;5068582;28;20081;-88
2022/09/19 10:18:13;;;;;;;0.00;0.00;;;;;;;;;;5066333;28;20381;-88
2022/09/19 10:20:49;;;;;;;0.10;0.10;;;;;;;;;;5068860;28;20409;-87
2022/09/19 10:23:23;;;;;;;0.10;0.10;;;;;;;;;;5065091;28;20557;-87
2022/09/19 10:25:51;;;;;;;0.20;0.20;;;;;;;;;;5057211;28;20457;-87
2022/09/19 10:28:30;;;;;;;0.10;0.10;;;;;;;;;;5068121;28;20404;-87
2022/09/19 10:31:01;;;;;;;0.10;0.10;;;;;;;;;;5064636;28;20262;-87
2022/09/19 10:33:43;;;;;;;0.10;0.10;;;;;;;;;;5064902;28;20085;-87
2022/09/19 10:36:19;;;;;;;0.20;0.20;;;;;;;;;;5067358;28;20115;-87
2022/09/19 10:38:50;;;;;;;0.20;0.20;;;;;;;;;;5060496;28;20090;-87
2022/09/19 10:41:19;;;;;;;0.10;0.10;;;;;;;;;;5081214;28;20076;-87
2022/09/19 10:43:47;;;;;;;0.30;0.30;;;;;;;;;;5064401;28;20440;-87
2022/09/19 10:46:18;;;;;;;0.10;0.10;;;;;;;;;;5068420;28;20392;-88
2022/09/19 10:48:52;;;;;;;0.10;0.10;;;;;;;;;;5076993;28;20048;-88
2022/09/19 10:51:18;;;;;;;0.10;0.10;;;;;;;;;;5060479;28;20032;-88
2022/09/19 10:53:45;;;;;;;0.10;0.10;;;;;;;;;;5067655;28;20048;-88
2022/09/19 10:56:22;;;;;;;0.10;0.10;;;;;;;;;;5064478;28;20028;-87
2022/09/19 10:58:49;;;;;;;0.20;0.20;;;;;;;;;;5085222;28;20048;-88
2022/09/19 11:01:21;;;;;;;0.13;0.13;;;;;;;;;;5064031;28;20035;-88
2022/09/19 11:04:21;;;;;;;0.10;0.10;;;;;;;;;;5059970;28;20037;-87
2022/09/19 11:06:57;;;;;;;0.10;0.10;;;;;;;;;;5059168;28;20044;-87
2022/09/19 11:09:27;;;;;;;0.10;0.10;;;;;;;;;;5063980;28;20405;-88
2022/09/19 11:12:02;;;;;;;0.10;0.10;;;;;;;;;;5064126;28;20040;-87
2022/09/19 11:14:32;;;;;;;0.10;0.10;;;;;;;;;;5065539;28;20443;-87
2022/09/19 11:17:21;;;;;;;0.10;0.10;;;;;;;;;;5065952;28;20036;-88
2022/09/19 11:20:02;;;;;;;0.10;0.10;;;;;;;;;;5056564;28;20051;-88
2022/09/19 11:22:44;;;;;;;0.20;0.20;;;;;;;;;;5065323;28;20036;-87
2022/09/19 11:25:35;;;;;;;0.10;0.10;;;;;;;;;;5083683;28;20040;-87
2022/09/19 11:28:07;;;;;;;0.30;0.30;;;;;;;;;;5082767;28;20109;-87
2022/09/19 11:30:38;;;;;;;0.20;0.20;;;;;;;;;;5064483;28;20067;-87
2022/09/19 11:33:07;;;;;;;0.20;0.20;;;;;;;;;;5063564;28;20411;-87
2022/09/19 11:35:36;;;;;;;0.10;0.10;;;;;;;;;;5082693;28;20028;-88
2022/09/19 11:38:08;;;;;;;0.10;0.10;;;;;;;;;;5064348;28;20506;-87
2022/09/19 11:40:43;;;;;;;0.10;0.10;;;;;;;;;;5079629;28;20041;-88
2022/09/19 11:43:12;;;;;;;;;;;;;;;;;;5067234;28;20032;-86
2022/09/19 11:45:44;;;;;;;0.10;0.10;;;;;;;;;;5063263;28;19916;-85
2022/09/19 11:48:20;;;;;;;0.10;0.10;;;;;;;;;;5058898;28;20072;-86
2022/09/19 11:50:49;;;;;;;0.10;0.10;;;;;;;;;;5063088;28;20051;-86
2022/09/19 11:53:17;;;;;;;0.20;0.20;;;;;;;;;;5062255;28;20089;-86
2022/09/19 11:55:54;;;;;;;0.10;0.10;;;;;;;;;;5066479;28;20028;-88
2022/09/19 11:58:23;;;;;;;0.10;0.10;;;;;;;;;;5055654;28;20477;-86
2022/09/19 12:00:56;;;;;;;0.10;0.10;;;;;;;;;;5065300;28;20036;-86
2022/09/19 12:03:43;;;;;;;0.13;0.13;;;;;;;;;;5063958;28;20417;-86
2022/09/19 12:06:25;;;;;;;0.15;0.15;;;;;;;;;;5057668;28;20084;-85
2022/09/19 12:08:52;;;;;;;0.10;0.10;;;;;;;;;;5080587;28;20052;-86
2022/09/19 12:11:21;;;;;;;0.10;0.10;;;;;;;;;;5065668;28;20031;-86
2022/09/19 12:13:57;;;;;;;0.10;0.10;;;;;;;;;;5063191;28;20143;-86
2022/09/19 12:16:38;;;;;;;0.13;0.13;;;;;;;;;;5064462;28;20374;-86
2022/09/19 12:19:08;;;;;;;0.10;0.10;;;;;;;;;;5066112;28;20485;-86
2022/09/19 12:21:39;;;;;;;0.20;0.20;;;;;;;;;;5065798;28;20085;-86
2022/09/19 12:26:57;;;;;;;0.17;0.17;;;;;;;;;;5076008;28;20074;-86
2022/09/19 12:29:34;;;;;;;0.10;0.10;;;;;;;;;;5063755;28;20074;-87
2022/09/19 12:32:06;;;;;;;0.30;0.30;;;;;;;;;;5079636;28;20453;-86
2022/09/19 12:34:39;;;;;;;0.30;0.30;;;;;;;;;;5083550;28;20493;-87
2022/09/19 12:37:12;;;;;;;0.20;0.20;;;;;;;;;;5064655;28;20188;-87
2022/09/19 12:39:42;;;;;;;0.10;0.10;;;;;;;;;;5054040;28;20064;-86
2022/09/19 12:42:11;;;;;;;0.10;0.10;;;;;;;;;;5082561;28;20036;-86
2022/09/19 12:44:52;;;;;;;0.30;0.30;;;;;;;;;;5057541;28;20047;-88
2022/09/19 12:47:31;;;;;;;0.20;0.20;;;;;;;;;;5067843;28;20150;-88
2022/09/19 12:50:05;;;;;;;0.20;0.20;;;;;;;;;;5065783;28;20044;-87
2022/09/19 12:52:36;;;;;;;0.10;0.10;;;;;;;;;;5064181;28;20039;-88
2022/09/19 12:55:03;;;;;;;0.10;0.10;;;;;;;;;;5058378;28;20047;-87
2022/09/19 12:57:50;;;;;;;0.10;0.10;;;;;;;;;;5061959;28;20508;-87
2022/09/19 13:00:18;;;;;;;0.10;0.10;;;;;;;;;;5066545;28;20110;-87
2022/09/19 13:03:02;;;;;;;0.10;0.10;;;;;;;;;;5061773;28;20044;-87
2022/09/19 13:05:36;;;;;;;0.17;0.17;;;;;;;;;;5065188;28;20488;-87
2022/09/19 13:08:09;;;;;;;0.20;0.20;;;;;;;;;;5068670;28;20518;-88
2022/09/19 13:10:38;;;;;;;0.10;0.10;;;;;;;;;;5061976;28;20106;-88
2022/09/19 13:13:12;;;;;;;0.10;0.10;;;;;;;;;;5065268;28;20085;-88
2022/09/19 13:15:49;;;;;;;0.10;0.10;;;;;;;;;;5082688;28;20223;-88
2022/09/19 13:23:47;;;;;;;0.10;0.10;;;;;;;;;;5075197;28;19917;-87
2022/09/19 13:26:25;;;;;;;0.10;0.10;;;;;;;;;;5064647;28;20036;-86
2022/09/19 13:28:58;;;;;;;0.10;0.10;;;;;;;;;;5063942;28;20032;-87
2022/09/19 13:31:42;;;;;;;0.10;0.10;;;;;;;;;;5067059;28;20039;-86
2022/09/19 13:34:27;;;;;;;0.20;0.20;;;;;;;;;;5065458;28;20172;-87
2022/09/19 13:36:53;;;;;;;0.13;0.13;;;;;;;;;;5066967;28;20109;-87
2022/09/19 13:39:39;;;;;;;0.00;0.00;;;;;;;;;;5083962;28;20040;-87
2022/09/19 13:42:06;;;;;;;0.05;0.05;;;;;;;;;;5061808;28;20323;-87
2022/09/19 13:44:44;;;;;;;0.10;0.10;;;;;;;;;;5064007;28;20044;-87
2022/09/19 13:47:19;;;;;;;0.20;0.20;;;;;;;;;;5064207;28;20421;-88
2022/09/19 13:49:56;;;;;;;0.10;0.10;;;;;;;;;;5082614;28;20149;-86
2022/09/19 13:52:31;;;;;;;0.10;0.10;;;;;;;;;;5063741;28;20124;-87
2022/09/19 13:55:02;;;;;;;;;;;;;;;;;;5067409;28;20485;-88
2022/09/19 13:57:30;;;;;;;0.00;0.00;;;;;;;;;;5067018;28;19916;-87
2022/09/19 14:00:03;;;;;;;0.10;0.10;;;;;;;;;;5081936;28;20128;-87
2022/09/19 14:02:39;;;;;;;0.13;0.13;;;;;;;;;;5069665;28;20036;-86
2022/09/19 14:05:10;;;;;;;0.10;0.10;;;;;;;;;;5061306;28;20032;-87
2022/09/19 14:07:56;;;;;;;0.10;0.10;;;;;;;;;;5069537;28;20051;-87
2022/09/19 14:10:23;;;;;;;0.10;0.10;;;;;;;;;;5085248;28;20040;-88
2022/09/19 14:12:53;;;;;;;0.10;0.10;;;;;;;;;;5065947;28;20497;-88
2022/09/19 14:15:34;;;;;;;0.20;0.20;;;;;;;;;;5066100;28;20165;-87
2022/09/19 14:18:12;;;;;;;0.20;0.20;;;;;;;;;;5065353;28;20036;-88
2022/09/19 14:20:54;;;;;;;0.10;0.10;;;;;;;;;;5086134;28;20039;-88
2022/09/19 14:23:22;;;;;;;0.30;0.30;;;;;;;;;;5067102;28;20033;-88
2022/09/19 14:26:08;;;;;;;0.10;0.10;;;;;;;;;;5066414;28;20198;-88
2022/09/19 14:28:34;;;;;;;;;;;;;;;;;;5057118;28;20123;-88
2022/09/19 14:31:10;;;;;;;0.10;0.10;;;;;;;;;;5064864;28;20003;-88
2022/09/19 14:33:43;;;;;;;0.10;0.10;;;;;;;;;;5061196;28;20275;-88
2022/09/19 14:36:27;;;;;;;0.03;0.03;;;;;;;;;;5067801;28;20439;-88
2022/09/19 14:39:05;;;;;;;0.20;0.20;;;;;;;;;;5067300;28;20283;-88
2022/09/19 14:41:41;;;;;;;0.10;0.10;;;;;;;;;;5059036;28;20139;-88
2022/09/19 14:44:16;;;;;;;0.10;0.10;;;;;;;;;;5082051;28;20481;-88
2022/09/19 14:46:58;;;;;;;0.17;0.17;;;;;;;;;;5066865;28;20107;-88
2022/09/19 14:49:47;;;;;;;0.10;0.10;;;;;;;;;;5064450;28;20062;-88
2022/09/19 14:52:16;;;;;;;0.10;0.10;;;;;;;;;;5068196;28;20033;-89
2022/09/19 14:54:50;;;;;;;0.10;0.10;;;;;;;;;;5067403;28;20523;-90
2022/09/19 14:57:20;;;;;;;0.13;0.13;;;;;;;;;;5066981;28;20489;-89
2022/09/19 14:59:47;;;;;;;0.08;0.08;;;;;;;;;;5066465;28;20040;-89
2022/09/19 15:02:13;;;;;;;0.10;0.10;;;;;;;;;;5083325;28;20090;-91
2022/09/19 15:04:40;;;;;;;0.10;0.10;;;;;;;;;;5064485;28;20047;-89
2022/09/19 15:07:06;;;;;;;0.10;0.10;;;;;;;;;;5068326;28;20492;-90
2022/09/19 15:09:37;;;;;;;0.10;0.10;;;;;;;;;;5065618;28;20044;-90
2022/09/19 15:12:22;;;;;;;0.10;0.10;;;;;;;;;;5058464;28;20044;-89
2022/09/19 15:14:49;;;;;;;0.03;0.03;;;;;;;;;;5066348;28;20081;-90
2022/09/19 15:17:19;;;;;;;0.10;0.10;;;;;;;;;;5067445;28;20135;-83
2022/09/19 15:19:49;;;;;;;0.20;0.20;;;;;;;;;;5066692;28;20036;-92
2022/09/19 15:22:16;;;;;;;0.30;0.30;;;;;;;;;;5066187;28;20032;-91
2022/09/19 15:24:44;;;;;;;0.10;0.10;;;;;;;;;;5066440;28;20385;-92
2022/09/19 15:27:12;;;;;;;0.10;0.10;;;;;;;;;;5066420;28;20031;-91